Time;durP1;ratioP1;P1;durP2;ratioP2;P2;SDS_P1;SDS_P2;PMS_P1;PMS_P2;Temp;Humidity;BMP_temperature;BMP_pressure;BME280_temperature;BME280_humidity;BME280_pressure;Samples;Min_cycle;Max_cycle;Signal;HPM_P1;HPM_P2
2022/01/03 00:01:26;;;;;;;;;;;;;;;-144.99;100.00;52692.69;5080697;28;20404;-69
2022/01/03 00:03:53;;;;;;;;;;;;;;;-144.99;100.00;52692.69;5069236;28;20393;-68
2022/01/03 00:06:20;;;;;;;;;;;;;;;-144.99;100.00;52684.53;5060537;28;19928;-69
2022/01/03 00:08:46;;;;;;;;;;;;;;;-144.99;100.00;52688.63;4713539;28;10000310;-69
2022/01/03 00:11:14;;;;;;;;;;;;;;;-144.99;100.00;52656.00;5073190;28;19931;-71
2022/01/03 00:13:41;;;;;;;;;;;;;;;-144.99;100.00;52700.84;5077621;28;20036;-69
2022/01/03 00:16:07;;;;;;;;;;;;;;;-144.99;100.00;52692.69;5073435;28;19932;-68
2022/01/03 00:18:35;;;;;;;;;;;;;;;-144.99;100.00;52676.38;5078546;28;19928;-68
2022/01/03 00:21:02;;;;;;;;;;;;;;;-144.99;100.00;52658.03;5076297;28;19947;-68
2022/01/03 00:23:29;;;;;;;;;;;;;;;-144.99;100.00;52700.84;5072341;28;19931;-68
2022/01/03 00:25:59;;;;;;;;;;;;;;;-144.99;100.00;52664.16;5073262;28;19935;-68
2022/01/03 00:28:30;;;;;;;;;;;;;;;-144.99;100.00;52684.53;5076684;28;20614;-68
2022/01/03 00:30:57;;;;;;;;;;;;;;;-144.99;100.00;52651.94;5064820;28;19924;-68
2022/01/03 00:33:24;;;;;;;;;;;;;;;-144.99;100.00;52647.84;5073962;28;20206;-68
2022/01/03 00:35:54;;;;;;;;;;;;;;;-144.99;100.00;52696.78;5068645;28;19924;-67
2022/01/03 00:38:22;;;;;;;;;;;;;;;-144.99;100.00;52694.72;5083341;28;19932;-67
2022/01/03 00:40:49;;;;;;;;;;;;;;;-144.99;100.00;52645.81;5074470;28;19936;-67
2022/01/03 00:43:16;;;;;;;;;;;;;;;-144.99;100.00;52696.78;5078263;28;19924;-67
2022/01/03 00:45:42;;;;;;;;;;;;;;;-144.99;100.00;52637.66;5071279;28;20155;-66
2022/01/03 00:48:09;;;;;;;;;;;;;;;-144.99;100.00;52688.63;5063994;28;20331;-66
2022/01/03 00:50:36;;;;;;;;;;;;;;;-144.99;100.00;52682.50;5080627;28;19932;-66
2022/01/03 00:53:05;;;;;;;;;;;;;;;-144.99;100.00;52680.47;5084067;28;19925;-66
2022/01/03 00:55:31;;;;;;;;;;;;;;;-144.99;100.00;52676.38;5076316;28;19929;-67
2022/01/03 00:57:59;;;;;;;;;;;;;;;-144.99;100.00;52660.09;5064038;28;20393;-65
2022/01/03 01:00:27;;;;;;;;;;;;;;;-144.99;100.00;52688.63;5075650;28;20002;-65
2022/01/03 01:02:57;;;;;;;;;;;;;;;-144.99;100.00;52688.63;5083434;28;19924;-65
2022/01/03 01:05:24;;;;;;;;;;;;;;;-144.99;100.00;52651.94;5079236;28;19931;-65
2022/01/03 01:07:52;;;;;;;;;;;;;;;-144.99;100.00;52684.53;5071326;28;20011;-66
2022/01/03 01:10:20;;;;;;;;;;;;;;;-144.99;100.00;52684.53;5078467;28;19970;-65
2022/01/03 01:12:47;;;;;;;;;;;;;;;-144.99;100.00;52696.78;5081766;28;19928;-65
2022/01/03 01:15:15;;;;;;;;;;;;;;;-144.99;100.00;52717.16;5074117;28;19932;-66
2022/01/03 01:17:42;;;;;;;;;;;;;;;-144.99;100.00;52702.88;5076853;28;19940;-65
2022/01/03 01:20:09;;;;;;;;;;;;;;;-144.99;100.00;52668.22;5077209;28;19924;-68
2022/01/03 01:22:36;;;;;;;;;;;;;;;-144.99;100.00;52668.22;5070633;28;20273;-67
2022/01/03 01:25:25;;;;;;;;;;;;;;;-144.99;100.00;52704.94;5084263;28;20309;-66
2022/01/03 01:27:53;;;;;;;;;;;;;;;-144.99;100.00;52656.00;5074883;28;19925;-66
2022/01/03 01:30:21;;;;;;;;;;;;;;;-144.99;100.00;52715.13;5079244;28;19924;-66
2022/01/03 01:32:49;;;;;;;;;;;;;;;-144.99;100.00;52645.81;5078378;28;19929;-68
2022/01/03 01:35:15;;;;;;;;;;;;;;;-144.99;100.00;52700.84;5092770;28;19928;-68
2022/01/03 01:37:43;;;;;;;;;;;;;;;-144.99;100.00;52676.38;5094347;28;20394;-68
2022/01/03 01:40:11;;;;;;;;;;;;;;;-144.99;100.00;52684.53;5074420;28;19931;-67
2022/01/03 01:42:45;;;;;;;;;;;;;;;-144.99;100.00;52709.00;5067132;28;19935;-67
2022/01/03 01:45:13;;;;;;;;;;;;;;;-144.99;100.00;52704.94;5065443;28;20418;-68
2022/01/03 01:47:40;;;;;;;;;;;;;;;-144.99;100.00;52676.38;5074142;28;19932;-67
2022/01/03 01:50:07;;;;;;;;;;;;;;;-144.99;100.00;52692.69;5071569;28;20423;-67
2022/01/03 01:52:36;;;;;;;;;;;;;;;-144.99;100.00;52692.69;5068751;28;19925;-67
2022/01/03 01:55:05;;;;;;;;;;;;;;;-144.99;100.00;52660.09;5081106;28;20309;-67
2022/01/03 01:57:39;;;;;;;;;;;;;;;-144.99;100.00;52723.28;5072409;28;19947;-68
2022/01/03 02:00:08;;;;;;;;;;;;;;;-144.99;100.00;52711.03;5078331;28;19990;-68
2022/01/03 02:02:37;;;;;;;;;;;;;;;-144.99;100.00;52684.53;5068407;28;19924;-66
2022/01/03 02:05:14;;;;;;;;;;;;;;;-144.99;100.00;52684.53;5059179;28;19932;-69
2022/01/03 02:07:54;;;;;;;;;;;;;;;-144.99;100.00;52680.47;5080344;28;20345;-68
2022/01/03 02:10:24;;;;;;;;;;;;;;;-144.99;100.00;52688.63;5075330;28;20483;-67
2022/01/03 02:12:50;;;;;;;;;;;;;;;-144.99;100.00;52700.84;5094281;22;19924;-64
2022/01/03 02:15:18;;;;;;;;;;;;;;;-144.99;100.00;52676.38;5026728;28;19926;-64
2022/01/03 02:17:47;;;;;;;;;;;;;;;-144.99;100.00;52694.72;5029435;28;19925;-65
2022/01/03 02:20:16;;;;;;;;;;;;;;;-144.99;100.00;52692.69;5028487;28;19925;-64
2022/01/03 02:22:43;;;;;;;;;;;;;;;-144.99;100.00;52717.16;5027700;28;20008;-65
2022/01/03 02:25:11;;;;;;;;;;;;;;;-144.99;100.00;52704.94;5019848;28;19935;-63
2022/01/03 02:27:38;;;;;;;;;;;;;;;-144.99;100.00;52696.78;5027690;28;20337;-65
2022/01/03 02:30:05;;;;;;;;;;;;;;;-144.99;100.00;52696.78;5028351;28;19925;-63
2022/01/03 02:32:32;;;;;;;;;;;;;;;-144.99;100.00;52702.88;5019406;28;19925;-63
2022/01/03 02:34:58;;;;;;;;;;;;;;;-144.99;100.00;52664.16;5027863;28;19968;-65
2022/01/03 02:37:26;;;;;;;;;;;;;;;-144.99;100.00;52706.97;5026832;28;19936;-65
2022/01/03 02:39:53;;;;;;;;;;;;;;;-144.99;100.00;52725.31;5027587;28;19925;-64
2022/01/03 02:42:23;;;;;;;;;;;;;;;-144.99;100.00;52676.38;5025553;28;19984;-60
2022/01/03 02:44:58;;;;;;;;;;;;;;;-144.99;100.00;52690.66;5021181;28;20006;-60
2022/01/03 02:47:24;;;;;;;;;;;;;;;-144.99;100.00;52713.09;5025725;28;19948;-61
2022/01/03 02:49:50;;;;;;;;;;;;;;;-144.99;100.00;52704.94;5027475;28;19952;-62
2022/01/03 02:52:17;;;;;;;;;;;;;;;-144.99;100.00;52700.84;5021245;28;19926;-60
2022/01/03 02:54:45;;;;;;;;;;;;;;;-144.99;100.00;52684.53;5024319;28;19929;-62
2022/01/03 02:57:11;;;;;;;;;;;;;;;-144.99;100.00;52696.78;5028126;28;19929;-60
2022/01/03 02:59:37;;;;;;;;;;;;;;;-144.99;100.00;52719.19;5027503;28;19925;-62
2022/01/03 03:02:05;;;;;;;;;;;;;;;-144.99;100.00;52684.53;5019497;28;19940;-62
2022/01/03 03:04:31;;;;;;;;;;;;;;;-144.99;100.00;52647.84;5021914;28;19999;-62
2022/01/03 03:06:58;;;;;;;;;;;;;;;-144.99;100.00;52719.19;5026394;28;19925;-62
2022/01/03 03:09:24;;;;;;;;;;;;;;;-144.99;100.00;52729.38;5027284;28;19933;-61
2022/01/03 03:11:52;;;;;;;;;;;;;;;-144.99;100.00;52704.94;5027091;28;20183;-59
2022/01/03 03:14:18;;;;;;;;;;;;;;;-144.99;100.00;52700.84;5022442;28;19948;-59
2022/01/03 03:16:46;;;;;;;;;;;;;;;-144.99;100.00;52753.84;5026919;28;19983;-59
2022/01/03 03:19:12;;;;;;;;;;;;;;;-144.99;100.00;52684.53;5026763;28;20349;-59
2022/01/03 03:21:38;;;;;;;;;;;;;;;-144.99;100.00;52696.78;5026104;28;19945;-61
2022/01/03 03:24:05;;;;;;;;;;;;;;;-144.99;100.00;52684.53;5025479;28;19925;-61
2022/01/03 03:26:31;;;;;;;;;;;;;;;-144.99;100.00;52680.47;5026409;28;20317;-62
2022/01/03 03:28:59;;;;;;;;;;;;;;;-144.99;100.00;52682.50;5026177;28;19936;-61
2022/01/03 03:31:26;;;;;;;;;;;;;;;-144.99;100.00;52692.69;5022110;28;19933;-61
2022/01/03 03:33:52;;;;;;;;;;;;;;;-144.99;100.00;52684.53;5025217;28;19925;-61
2022/01/03 03:36:18;;;;;;;;;;;;;;;-144.99;100.00;52733.47;5031183;28;20123;-61
2022/01/03 03:38:45;;;;;;;;;;;;;;;-144.99;100.00;52680.47;5030852;28;19926;-60
2022/01/03 03:41:11;;;;;;;;;;;;;;;-144.99;100.00;52680.47;5028227;28;19925;-60
2022/01/03 03:43:37;;;;;;;;;;;;;;;-144.99;100.00;52696.78;5029537;28;19929;-59
2022/01/03 03:46:07;;;;;;;;;;;;;;;-144.99;100.00;52709.00;5028339;28;19933;-60
2022/01/03 03:48:34;;;;;;;;;;;;;;;-144.99;100.00;52696.78;5037789;28;19932;-60
2022/01/03 03:51:01;;;;;;;;;;;;;;;-144.99;100.00;52696.78;5029193;28;20270;-61
2022/01/03 03:53:27;;;;;;;;;;;;;;;-144.99;100.00;52688.63;5019003;28;19929;-58
2022/01/03 03:55:53;;;;;;;;;;;;;;;-144.99;100.00;52672.31;5030665;28;19925;-59
2022/01/03 03:58:20;;;;;;;;;;;;;;;-144.99;100.00;52702.88;5029442;28;19925;-60
2022/01/03 04:00:46;;;;;;;;;;;;;;;-144.99;100.00;52706.97;5031291;28;19953;-59
2022/01/03 04:03:14;;;;;;;;;;;;;;;-144.99;100.00;52713.09;5028478;28;20386;-61
2022/01/03 04:05:40;;;;;;;;;;;;;;;-144.99;100.00;52700.84;5030476;28;19929;-59
2022/01/03 04:08:06;;;;;;;;;;;;;;;-144.99;100.00;52751.81;5030805;28;20402;-61
2022/01/03 04:10:33;;;;;;;;;;;;;;;-144.99;100.00;52709.00;5029969;28;19925;-63
2022/01/03 04:12:59;;;;;;;;;;;;;;;-144.99;100.00;52662.13;5028286;28;19937;-64
2022/01/03 04:15:26;;;;;;;;;;;;;;;-144.99;100.00;52656.00;5024709;28;19932;-64
2022/01/03 04:17:52;;;;;;;;;;;;;;;-144.99;100.00;52704.94;5029348;28;19949;-64
2022/01/03 04:20:20;;;;;;;;;;;;;;;-144.99;100.00;52664.16;5028139;28;19933;-61
2022/01/03 04:22:46;;;;;;;;;;;;;;;-144.99;100.00;52680.47;5028661;28;19932;-63
2022/01/03 04:25:14;;;;;;;;;;;;;;;-144.99;100.00;52704.94;5029043;28;19925;-63
2022/01/03 04:27:41;;;;;;;;;;;;;;;-144.99;100.00;52664.16;5035891;28;19931;-63
2022/01/03 04:30:08;;;;;;;;;;;;;;;-144.99;100.00;52704.94;5025978;28;19925;-63
2022/01/03 04:32:34;;;;;;;;;;;;;;;-144.99;100.00;52725.31;5027207;28;19933;-63
2022/01/03 04:35:01;;;;;;;;;;;;;;;-144.99;100.00;52692.69;5029293;28;19933;-63
2022/01/03 04:37:28;;;;;;;;;;;;;;;-144.99;100.00;52704.94;5030836;28;19925;-61
2022/01/03 04:39:55;;;;;;;;;;;;;;;-144.99;100.00;52678.44;5030129;28;19925;-61
2022/01/03 04:42:21;;;;;;;;;;;;;;;-144.99;100.00;52717.16;5029308;28;19925;-62
2022/01/03 04:44:48;;;;;;;;;;;;;;;-144.99;100.00;52688.63;5019309;28;19977;-61
2022/01/03 04:47:14;;;;;;;;;;;;;;;-144.99;100.00;52700.84;5029094;28;19933;-62
2022/01/03 04:49:41;;;;;;;;;;;;;;;-144.99;100.00;52692.69;5029098;28;19925;-62
2022/01/03 04:52:07;;;;;;;;;;;;;;;-144.99;100.00;52704.94;5029336;28;19978;-61
2022/01/03 04:54:35;;;;;;;;;;;;;;;-144.99;100.00;52660.09;5027598;28;19925;-61
2022/01/03 04:57:01;;;;;;;;;;;;;;;-144.99;100.00;52684.53;5028920;28;19941;-60
2022/01/03 04:59:28;;;;;;;;;;;;;;;-144.99;100.00;52709.00;5030189;28;19926;-60
2022/01/03 05:01:54;;;;;;;;;;;;;;;-144.99;100.00;52680.47;5028599;28;19944;-60
2022/01/03 05:04:20;;;;;;;;;;;;;;;-144.99;100.00;52631.53;5026123;28;20187;-60
2022/01/03 05:06:47;;;;;;;;;;;;;;;-144.99;100.00;52709.00;5028831;28;20006;-61
2022/01/03 05:09:13;;;;;;;;;;;;;;;-144.99;100.00;52684.53;5029804;28;19929;-60
2022/01/03 05:11:41;;;;;;;;;;;;;;;-144.99;100.00;52672.31;5027819;28;19936;-60
2022/01/03 05:14:08;;;;;;;;;;;;;;;-144.99;100.00;52639.69;5028222;28;20373;-61
2022/01/03 05:16:34;;;;;;;;;;;;;;;-144.99;100.00;52713.09;5029313;28;19940;-58
2022/01/03 05:19:00;;;;;;;;;;;;;;;-144.99;100.00;52672.31;5027697;28;19928;-59
2022/01/03 05:21:27;;;;;;;;;;;;;;;-144.99;100.00;52700.84;5026337;28;19925;-61
2022/01/03 05:23:53;;;;;;;;;;;;;;;-144.99;100.00;52662.13;5029063;28;20000;-60
2022/01/03 05:26:19;;;;;;;;;;;;;;;-144.99;100.00;52676.38;5027772;28;19929;-60
2022/01/03 05:28:47;;;;;;;;;;;;;;;-144.99;100.00;52672.31;5028189;28;19932;-60
2022/01/03 05:31:14;;;;;;;;;;;;;;;-144.99;100.00;52709.00;5028947;28;20347;-60
2022/01/03 05:33:40;;;;;;;;;;;;;;;-144.99;100.00;52688.63;5027932;28;20028;-60
2022/01/03 05:36:07;;;;;;;;;;;;;;;-144.99;100.00;52696.78;5028573;28;19925;-60
2022/01/03 05:38:33;;;;;;;;;;;;;;;-144.99;100.00;52686.59;5029242;28;19928;-61
2022/01/03 05:41:00;;;;;;;;;;;;;;;-144.99;100.00;52672.31;5027931;28;20021;-60
2022/01/03 05:43:26;;;;;;;;;;;;;;;-144.99;100.00;52704.94;5028766;28;19925;-60
2022/01/03 05:45:54;;;;;;;;;;;;;;;-144.99;100.00;52684.53;5020283;28;20282;-60
2022/01/03 05:48:20;;;;;;;;;;;;;;;-144.99;100.00;52711.03;5030313;28;19948;-66
2022/01/03 05:50:47;;;;;;;;;;;;;;;-144.99;100.00;52704.94;5027040;28;19925;-65
2022/01/03 05:53:13;;;;;;;;;;;;;;;-144.99;100.00;52700.84;5028775;28;20016;-65
2022/01/03 05:55:39;;;;;;;;;;;;;;;-144.99;100.00;52668.22;5024726;28;19929;-65
2022/01/03 05:58:06;;;;;;;;;;;;;;;-144.99;100.00;52704.94;5026060;28;19965;-65
2022/01/03 06:00:32;;;;;;;;;;;;;;;-144.99;100.00;52692.69;5028636;28;20389;-64
2022/01/03 06:03:00;;;;;;;;;;;;;;;-144.99;100.00;52700.84;4331142;28;10000820;-65
2022/01/03 06:05:41;;;;;;;;;;;;;;;-144.99;100.00;52664.16;5024518;28;19935;-65
2022/01/03 06:08:08;;;;;;;;;;;;;;;-144.99;100.00;52694.72;5024961;28;20034;-65
2022/01/03 06:10:34;;;;;;;;;;;;;;;-144.99;100.00;52670.28;5024944;28;19956;-65
2022/01/03 06:13:00;;;;;;;;;;;;;;;-144.99;100.00;52676.38;5024186;28;19929;-66
2022/01/03 06:15:27;;;;;;;;;;;;;;;-144.99;100.00;52680.47;5024912;28;20273;-65
2022/01/03 06:17:53;;;;;;;;;;;;;;;-144.99;100.00;52668.22;5023757;28;19930;-65
2022/01/03 06:20:21;;;;;;;;;;;;;;;-144.99;100.00;52647.84;5024431;28;20523;-65
2022/01/03 06:22:47;;;;;;;;;;;;;;;-144.99;100.00;52664.16;5024188;28;19972;-68
2022/01/03 06:25:14;;;;;;;;;;;;;;;-144.99;100.00;52662.13;5028977;28;19933;-68
2022/01/03 06:27:40;;;;;;;;;;;;;;;-144.99;100.00;52709.00;5024700;28;20316;-68
2022/01/03 06:30:08;;;;;;;;;;;;;;;-144.99;100.00;52656.00;5030460;28;19925;-68
2022/01/03 06:32:35;;;;;;;;;;;;;;;-144.99;100.00;52672.31;5024255;28;19929;-67
2022/01/03 06:35:01;;;;;;;;;;;;;;;-144.99;100.00;52668.22;5025596;28;19932;-68
2022/01/03 06:37:29;;;;;;;;;;;;;;;-144.99;100.00;52664.16;5027054;28;20020;-69
2022/01/03 06:39:55;;;;;;;;;;;;;;;-144.99;100.00;52660.09;5025143;28;19929;-68
2022/01/03 06:42:21;;;;;;;;;;;;;;;-144.99;100.00;52656.00;5022208;28;19925;-68
2022/01/03 06:44:48;;;;;;;;;;;;;;;-144.99;100.00;52682.50;5018240;28;19937;-67
2022/01/03 06:47:15;;;;;;;;;;;;;;;-144.99;100.00;52656.00;5038349;28;20325;-67
2022/01/03 06:49:41;;;;;;;;;;;;;;;-144.99;100.00;52684.53;5030067;28;19925;-68
2022/01/03 06:52:08;;;;;;;;;;;;;;;-144.99;100.00;52651.94;5026740;28;20009;-68
2022/01/03 06:54:35;;;;;;;;;;;;;;;-144.99;100.00;52680.47;5029665;28;19926;-67
2022/01/03 06:57:02;;;;;;;;;;;;;;;-144.99;100.00;52696.78;5023796;28;20266;-68
2022/01/03 06:59:28;;;;;;;;;;;;;;;-144.99;100.00;52678.44;5024974;28;20005;-68
2022/01/03 07:01:57;;;;;;;;;;;;;;;-144.99;100.00;52680.47;5014552;28;20416;-68
2022/01/03 07:04:23;;;;;;;;;;;;;;;-144.99;100.00;52668.22;5021962;28;19929;-68
2022/01/03 07:06:49;;;;;;;;;;;;;;;-144.99;100.00;52668.22;5017403;28;19937;-70
2022/01/03 07:09:16;;;;;;;;;;;;;;;-144.99;100.00;52660.09;5036179;28;19952;-69
2022/01/03 07:11:44;;;;;;;;;;;;;;;-144.99;100.00;52649.88;5025193;28;20088;-69
2022/01/03 07:19:35;;;;;;;;;;;;;;;-144.99;100.00;52643.78;5026837;28;19979;-68
2022/01/03 07:22:04;;;;;;;;;;;;;;;-144.99;100.00;52670.28;5028334;28;19936;-69
2022/01/03 07:24:30;;;;;;;;;;;;;;;-144.99;100.00;52664.16;5026651;28;19955;-69
2022/01/03 07:27:00;;;;;;;;;;;;;;;-144.99;100.00;52696.78;5028597;28;20377;-68
2022/01/03 07:29:27;;;;;;;;;;;;;;;-144.99;100.00;52668.22;5021333;28;19929;-68
2022/01/03 07:31:53;;;;;;;;;;;;;;;-144.99;100.00;52656.00;5028201;28;19933;-68
2022/01/03 07:34:19;;;;;;;;;;;;;;;-144.99;100.00;52651.94;5024304;28;20191;-68
2022/01/03 07:36:46;;;;;;;;;;;;;;;-144.99;100.00;52676.38;5025284;28;19929;-70
2022/01/03 07:39:12;;;;;;;;;;;;;;;-144.99;100.00;52672.31;5028467;28;19925;-68
2022/01/03 07:41:38;;;;;;;;;;;;;;;-144.99;100.00;52656.00;5028051;28;19932;-69
2022/01/03 07:44:06;;;;;;;;;;;;;;;-144.99;100.00;52692.69;5027321;28;19925;-71
2022/01/03 07:46:33;;;;;;;;;;;;;;;-144.99;100.00;52704.94;5028115;28;20353;-68
2022/01/03 07:48:59;;;;;;;;;;;;;;;-144.99;100.00;52694.72;5027419;28;20416;-69
2022/01/03 07:51:25;;;;;;;;;;;;;;;-144.99;100.00;52658.03;5029198;28;19925;-68
2022/01/03 07:53:52;;;;;;;;;;;;;;;-144.99;100.00;52641.72;5025959;28;19925;-68
2022/01/03 07:56:19;;;;;;;;;;;;;;;-144.99;100.00;52688.63;5026721;28;19935;-68
2022/01/03 07:58:46;;;;;;;;;;;;;;;-144.99;100.00;52664.16;5027220;28;19929;-70
2022/01/03 08:01:14;;;;;;;;;;;;;;;-144.99;100.00;52656.00;5027492;28;19933;-68
2022/01/03 08:03:41;;;;;;;;;;;;;;;-144.99;100.00;52643.78;5025805;28;19929;-68
2022/01/03 08:06:08;;;;;;;;;;;;;;;-144.99;100.00;52680.47;5012293;28;19929;-70
2022/01/03 08:08:35;;;;;;;;;;;;;;;-144.99;100.00;52684.53;5018920;28;19959;-69
2022/01/03 08:11:01;;;;;;;;;;;;;;;-144.99;100.00;52676.38;5028212;28;20524;-69
2022/01/03 08:15:57;;;;;;;;;;;;;;;-144.99;100.00;52700.84;5051714;28;20391;-75
2022/01/03 08:18:25;;;;;;;;;;;;;;;-144.99;100.00;52668.22;5066416;28;19928;-77
2022/01/03 08:20:53;;;;;;;;;;;;;;;-144.99;100.00;52647.84;5062319;28;19929;-78
2022/01/03 08:23:19;;;;;;;;;;;;;;;-144.99;100.00;52676.38;5066602;28;19933;-79
2022/01/03 08:25:45;;;;;;;;;;;;;;;-144.99;100.00;52704.94;5059610;28;19932;-78
2022/01/03 08:28:12;;;;;;;;;;;;;;;-144.99;100.00;52670.28;5053485;28;20352;-78
2022/01/03 08:30:38;;;;;;;;;;;;;;;-144.99;100.00;52656.00;5053911;28;19929;-79
2022/01/03 08:33:05;;;;;;;;;;;;;;;-144.99;100.00;52688.63;5050427;28;20249;-78
2022/01/03 08:35:33;;;;;;;;;;;;;;;-144.99;100.00;52656.00;5055100;28;19928;-79
2022/01/03 08:38:00;;;;;;;;;;;;;;;-144.99;100.00;52676.38;5056500;28;19970;-77
2022/01/03 08:40:26;;;;;;;;;;;;;;;-144.99;100.00;52668.22;5060734;28;19924;-78
2022/01/03 08:42:53;;;;;;;;;;;;;;;-144.99;100.00;52682.50;5064456;28;19940;-77
2022/01/03 08:45:19;;;;;;;;;;;;;;;-144.99;100.00;52684.53;5057531;28;19979;-78
2022/01/03 08:47:46;;;;;;;;;;;;;;;-144.99;100.00;52674.34;5068126;28;19928;-79
2022/01/03 08:50:15;;;;;;;;;;;;;;;-144.99;100.00;52672.31;5053942;28;20117;-78
2022/01/03 08:52:43;;;;;;;;;;;;;;;-144.99;100.00;52684.53;5050603;28;19940;-78
2022/01/03 08:55:09;;;;;;;;;;;;;;;-144.99;100.00;52647.84;5047889;28;19928;-78
2022/01/03 08:57:35;;;;;;;;;;;;;;;-144.99;100.00;52688.63;5060737;28;19928;-77
2022/01/03 09:00:02;;;;;;;;;;;;;;;-144.99;100.00;52672.31;5054736;28;19951;-78
2022/01/03 09:02:28;;;;;;;;;;;;;;;-144.99;100.00;52696.78;5052981;28;19929;-77
2022/01/03 09:04:54;;;;;;;;;;;;;;;-144.99;100.00;52643.78;5064509;28;19936;-78
2022/01/03 09:07:20;;;;;;;;;;;;;;;-144.99;100.00;52668.22;5052649;28;20244;-78
2022/01/03 09:09:48;;;;;;;;;;;;;;;-144.99;100.00;52684.53;5047222;28;20531;-78
2022/01/03 09:12:15;;;;;;;;;;;;;;;-144.99;100.00;52688.63;5049783;28;19929;-78
2022/01/03 09:14:41;;;;;;;;;;;;;;;-144.99;100.00;52637.66;5047814;28;19973;-78
2022/01/03 09:17:07;;;;;;;;;;;;;;;-144.99;100.00;52660.09;5067186;28;19986;-78
2022/01/03 09:19:35;;;;;;;;;;;;;;;-144.99;100.00;52662.13;5053050;28;19933;-78
2022/01/03 09:22:09;;;;;;;;;;;;;;;-144.99;100.00;52662.13;5057690;28;19936;-79
2022/01/03 09:24:46;;;;;;;;;;;;;;;-144.99;100.00;52668.22;5057396;28;20032;-77
2022/01/03 09:29:59;;;;;;;;;;;;;;;-144.99;100.00;52676.38;5051886;28;20018;-78
2022/01/03 09:32:25;;;;;;;;;;;;;;;-144.99;100.00;52674.34;5046755;28;19929;-78
2022/01/03 09:34:52;;;;;;;;;;;;;;;-144.99;100.00;52672.31;5045992;28;19929;-77
2022/01/03 09:37:20;;;;;;;;;;;;;;;-144.99;100.00;52725.31;5063898;28;19939;-78
2022/01/03 09:39:46;;;;;;;;;;;;;;;-144.99;100.00;52676.38;5079260;28;19928;-78
2022/01/03 09:42:15;;;;;;;;;;;;;;;-144.99;100.00;52664.16;5062739;28;19939;-77
2022/01/03 09:44:42;;;;;;;;;;;;;;;-144.99;100.00;52651.94;5061894;28;19935;-78
2022/01/03 09:47:11;;;;;;;;;;;;;;;-144.99;100.00;52674.34;5057346;28;19928;-79
2022/01/03 09:49:40;;;;;;;;;;;;;;;-144.99;100.00;52704.94;5063235;28;19944;-79
2022/01/03 09:52:07;;;;;;;;;;;;;;;-144.99;100.00;52688.63;5049477;28;19932;-78
2022/01/03 09:54:34;;;;;;;;;;;;;;;-144.99;100.00;52696.78;5052856;28;19940;-77
2022/01/03 09:57:01;;;;;;;;;;;;;;;-144.99;100.00;52686.59;5062318;28;19924;-76
2022/01/03 09:59:29;;;;;;;;;;;;;;;-144.99;100.00;52684.53;5049104;28;20303;-79
2022/01/03 10:01:56;;;;;;;;;;;;;;;-144.99;100.00;52647.84;5066108;28;19962;-79
2022/01/03 10:04:23;;;;;;;;;;;;;;;-144.99;100.00;52658.03;5070088;28;19936;-79
2022/01/03 10:06:49;;;;;;;;;;;;;;;-144.99;100.00;52668.22;5074862;28;20071;-79
2022/01/03 10:09:16;;;;;;;;;;;;;;;-144.99;100.00;52656.00;5062332;28;19928;-80
2022/01/03 10:11:42;;;;;;;;;;;;;;;-144.99;100.00;52656.00;5062609;28;19929;-79
2022/01/03 10:14:11;;;;;;;;;;;;;;;-144.99;100.00;52664.16;5075774;28;19912;-80
2022/01/03 10:16:39;;;;;;;;;;;;;;;-144.99;100.00;52668.22;5083536;28;20552;-80
2022/01/03 10:19:05;;;;;;;;;;;;;;;-144.99;100.00;52660.09;5086755;28;19912;-80
2022/01/03 10:21:36;;;;;;;;;;;;;;;-144.99;100.00;52656.00;5078541;28;19936;-80
2022/01/03 10:24:03;;;;;;;;;;;;;;;-144.99;100.00;52676.38;5086212;28;20256;-79
2022/01/03 10:26:29;;;;;;;;;;;;;;;-144.99;100.00;52639.69;5086312;28;19935;-79
2022/01/03 10:29:10;;;;;;;;;;;;;;;-144.99;100.00;52623.38;5070910;28;19929;-79
2022/01/03 10:31:40;;;;;;;;;;;;;;;-144.99;100.00;52651.94;5067009;28;19984;-79
2022/01/03 10:34:06;;;;;;;;;;;;;;;-144.99;100.00;52660.09;5076792;28;19936;-80
2022/01/03 10:36:37;;;;;;;;;;;;;;;-144.99;100.00;52668.22;5071475;28;19968;-78
2022/01/03 10:39:11;;;;;;;;;;;;;;;-144.99;100.00;52684.53;5077249;28;19991;-80
2022/01/03 10:41:38;;;;;;;;;;;;;;;-144.99;100.00;52664.16;5077181;28;20188;-79
2022/01/03 10:44:04;;;;;;;;;;;;;;;-144.99;100.00;52672.31;5064647;28;19942;-79
2022/01/03 10:46:31;;;;;;;;;;;;;;;-144.99;100.00;52660.09;5075293;28;20166;-79
2022/01/03 10:49:07;;;;;;;;;;;;;;;-144.99;100.00;52651.94;5080587;28;19925;-79
2022/01/03 10:51:34;;;;;;;;;;;;;;;-144.99;100.00;52680.47;5069460;28;19933;-79
2022/01/03 10:54:02;;;;;;;;;;;;;;;-144.99;100.00;52668.22;5063262;28;21318;-78
2022/01/03 10:56:32;;;;;;;;;;;;;;;-144.99;100.00;52631.53;5077127;28;19928;-80
2022/01/03 10:58:59;;;;;;;;;;;;;;;-144.99;100.00;52656.00;5072878;28;19995;-79
2022/01/03 11:01:26;;;;;;;;;;;;;;;-144.99;100.00;52684.53;5068138;28;19939;-79
2022/01/03 11:03:54;;;;;;;;;;;;;;;-144.99;100.00;52621.34;5077063;28;19936;-80
2022/01/03 11:06:25;;;;;;;;;;;;;;;-144.99;100.00;52631.53;5079447;28;19967;-79
2022/01/03 11:11:36;;;;;;;;;;;;;;;-144.99;100.00;52629.50;5077552;28;20000;-78
2022/01/03 11:14:03;;;;;;;;;;;;;;;-144.99;100.00;52639.69;5063660;28;19976;-78
2022/01/03 11:16:33;;;;;;;;;;;;;;;-144.99;100.00;52680.47;5064127;28;19952;-78
2022/01/03 11:18:59;;;;;;;;;;;;;;;-144.99;100.00;52688.63;5079042;28;20380;-78
2022/01/03 11:21:28;;;;;;;;;;;;;;;-144.99;100.00;52647.84;5079514;28;19916;-80
2022/01/03 11:24:04;;;;;;;;;;;;;;;-144.99;100.00;52660.09;5082370;28;19936;-79
2022/01/03 11:26:30;;;;;;;;;;;;;;;-144.99;100.00;52635.63;5082269;28;19913;-80
2022/01/03 11:28:57;;;;;;;;;;;;;;;-144.99;100.00;52635.63;5088329;28;19912;-79
2022/01/03 11:31:24;;;;;;;;;;;;;;;-144.99;100.00;52664.16;5068596;28;20406;-79
2022/01/03 11:33:51;;;;;;;;;;;;;;;-144.99;100.00;52656.00;5066383;28;19928;-78
2022/01/03 11:36:20;;;;;;;;;;;;;;;-144.99;100.00;52635.63;5068941;28;19960;-79
2022/01/03 11:38:48;;;;;;;;;;;;;;;-144.99;100.00;52656.00;5063584;28;19929;-79
2022/01/03 11:41:15;;;;;;;;;;;;;;;-144.99;99.12;52684.53;5063847;28;20385;-79
2022/01/03 11:43:43;;;;;;;;;;;;;;;-144.99;100.00;52676.38;5061677;28;19924;-79
2022/01/03 11:46:09;;;;;;;;;;;;;;;-144.99;100.00;52635.63;5072883;28;19928;-78
2022/01/03 11:48:36;;;;;;;;;;;;;;;-144.99;99.78;52660.09;5075531;28;19929;-78
2022/01/03 11:51:05;;;;;;;;;;;;;;;-144.99;99.86;52635.63;5057296;28;19937;-77
2022/01/03 11:53:32;;;;;;;;;;;;;;;-144.99;99.43;52647.84;5051840;28;19982;-77
2022/01/03 11:56:02;;;;;;;;;;;;;;;-144.99;98.11;52656.00;5059080;28;19950;-78
2022/01/03 11:58:43;;;;;;;;;;;;;;;-144.99;96.46;52641.72;5067296;28;19928;-78
2022/01/03 12:03:54;;;;;;;;;;;;;;;-144.99;92.86;52611.16;5094078;28;19920;-80
2022/01/03 12:06:26;;;;;;;;;;;;;;;-144.99;92.75;52686.59;5081061;28;19913;-80
2022/01/03 12:08:54;;;;;;;;;;;;;;;-144.99;93.29;52641.72;5091007;28;19912;-79
2022/01/03 12:11:23;;;;;;;;;;;;;;;-144.99;94.42;52635.63;5074611;28;19929;-80
2022/01/03 12:13:50;;;;;;;;;;;;;;;-144.99;93.01;52656.00;5087913;28;19928;-78
2022/01/03 12:16:17;;;;;;;;;;;;;;;-144.99;92.49;52607.09;5093085;28;20032;-78
2022/01/03 12:18:56;;;;;;;;;;;;;;;-144.99;92.10;52643.78;5078551;28;19928;-78
2022/01/03 12:21:37;;;;;;;;;;;;;;;-144.99;90.32;52656.00;5083912;28;19924;-78
2022/01/03 12:24:24;;;;;;;;;;;;;;;-144.99;90.20;52686.59;5084469;28;19950;-78
2022/01/03 12:27:20;;;;;;;;;;;;;;;-144.99;89.18;52635.63;5084155;28;19947;-80
2022/01/03 12:30:06;;;;;;;;;;;;;;;-144.99;91.59;52668.22;5065907;28;19924;-79
2022/01/03 12:32:33;;;;;;;;;;;;;;;-144.99;92.40;52692.69;5062948;28;19925;-80
2022/01/03 12:35:19;;;;;;;;;;;;;;;-144.99;92.28;52668.22;5068399;28;19925;-79
2022/01/03 12:37:47;;;;;;;;;;;;;;;-144.99;97.41;52713.09;5077717;28;20116;-79